Accueil
METAR-TAF:

METAR-TAF

Aéroports :

Base d'aéronautique navale de Lanvéoc-Poulmic

Lanvéoc, France

latitude: 48-17N, longitude: 004-26W, altitude: 87 m

Observation

Le bulletin a été fait il y a 25 minutes, à 02:00 UTC
Vent 7 kt de sud-ouest
Température 15°C
Humidité 94%
Pression 1024 hPa
Visibilité 10 km ou plus
Ciel couvert à une hauteur de 1400 ft

METAR: LFRL 190200Z AUTO 23007KT 9999 OVC014 15/14 Q1024

Heure: 04:25 (02:25 UTC)

Prévision

Le bulletin a été fait il y a 15 heures et 25 minutes, à 11:00 UTC
Prévision valable du 17 à 12 UTC au 18 à 12 UTC
Vent 8 kt de nord-ouest
Visibilité 10 km ou plus
Quelques nuages à une hauteur de 3000 ft
Nuages fragmentés à une hauteur de 5000 ft
Evoluant progressivement
du 17 à 22 UTC au 18 à 01 UTC
Nuages épars à une hauteur de 1000 ft
Nuages fragmentés à une hauteur de 1500 ft

TAF: LFRL 171100Z 1712/1812 31008KT 9999 FEW030 BKN050 BECMG 1722/1801 SCT010 BKN015

Observations et prévisions météorologiques de plus de 4000 aéroports (messages METAR et TAF).

Les stations disponibles sont représentées par des disques jaunes et rouges sur la carte.

Passer la souris dessus pour voir le nom de la station.

Cliquer dessus pour voir les observations et prévisions météorologiques.

Pour changer de carte: cliquez sur les boutons verts avec une croix noire pour zoomer, sur le bouton vert avec un tiret pour effectuer un zoom arrière, ou sur les flèches vertes pour les cartes adjacentes.


METAR-TAF: